sensor_id;sensor_type;location;lat;lon;timestamp;pressure;altitude;pressure_sealevel;temperature;humidity
76352;BME280;65179;47.786;19.138;2023-08-21T11:46:46;100712.72;;;36.34;34.68
76352;BME280;65179;47.786;19.138;2023-08-21T11:49:12;100710.06;;;35.89;35.37
76352;BME280;65179;47.786;19.138;2023-08-21T11:51:40;100709.22;;;36.44;34.66
76352;BME280;65179;47.786;19.138;2023-08-21T11:54:06;100702.44;;;36.89;34.13
76352;BME280;65179;47.786;19.138;2023-08-21T11:56:31;100708.19;;;36.99;34.22
76352;BME280;65179;47.786;19.138;2023-08-21T11:58:57;100708.41;;;37.20;33.87
76352;BME280;65179;47.786;19.138;2023-08-21T12:01:24;100704.00;;;37.27;33.07
76352;BME280;65179;47.786;19.138;2023-08-21T12:03:50;100697.84;;;36.11;33.90
76352;BME280;65179;47.786;19.138;2023-08-21T12:06:19;100693.34;;;35.76;34.24
76352;BME280;65179;47.786;19.138;2023-08-21T12:08:45;100693.94;;;36.52;34.67
76352;BME280;65179;47.786;19.138;2023-08-21T12:11:10;100694.25;;;36.80;34.18
76352;BME280;65179;47.786;19.138;2023-08-21T12:13:36;100695.97;;;36.88;34.27
76352;BME280;65179;47.786;19.138;2023-08-21T12:16:03;100686.91;;;36.76;34.08
76352;BME280;65179;47.786;19.138;2023-08-21T12:18:28;100695.94;;;36.48;33.08
76352;BME280;65179;47.786;19.138;2023-08-21T12:20:54;100696.16;;;36.03;34.29
76352;BME280;65179;47.786;19.138;2023-08-21T12:23:19;100695.44;;;35.83;34.34
76352;BME280;65179;47.786;19.138;2023-08-21T12:25:44;100691.66;;;35.98;33.76
76352;BME280;65179;47.786;19.138;2023-08-21T12:28:10;100687.50;;;36.22;33.83
76352;BME280;65179;47.786;19.138;2023-08-21T12:30:36;100688.66;;;36.17;32.48
76352;BME280;65179;47.786;19.138;2023-08-21T12:33:02;100692.31;;;36.18;32.43
76352;BME280;65179;47.786;19.138;2023-08-21T12:35:27;100689.25;;;36.00;32.43
76352;BME280;65179;47.786;19.138;2023-08-21T12:37:57;100684.59;;;36.48;32.21
76352;BME280;65179;47.786;19.138;2023-08-21T12:40:23;100684.19;;;36.46;31.74
76352;BME280;65179;47.786;19.138;2023-08-21T12:42:49;100683.00;;;36.17;32.44
76352;BME280;65179;47.786;19.138;2023-08-21T12:45:15;100683.28;;;36.38;31.68
76352;BME280;65179;47.786;19.138;2023-08-21T12:47:41;100684.56;;;36.15;31.81
76352;BME280;65179;47.786;19.138;2023-08-21T12:50:07;100680.47;;;36.09;30.22
76352;BME280;65179;47.786;19.138;2023-08-21T12:52:32;100678.53;;;36.46;31.01
76352;BME280;65179;47.786;19.138;2023-08-21T12:55:00;100675.56;;;36.72;31.23
76352;BME280;65179;47.786;19.138;2023-08-21T12:59:51;100671.94;;;36.38;30.54
76352;BME280;65179;47.786;19.138;2023-08-21T13:02:16;100666.31;;;36.75;29.72
76352;BME280;65179;47.786;19.138;2023-08-21T13:04:42;100665.06;;;36.73;30.30
76352;BME280;65179;47.786;19.138;2023-08-21T13:07:08;100660.53;;;37.05;30.19
76352;BME280;65179;47.786;19.138;2023-08-21T13:09:33;100660.53;;;37.08;30.18
76352;BME280;65179;47.786;19.138;2023-08-21T13:11:59;100655.53;;;37.39;30.06
76352;BME280;65179;47.786;19.138;2023-08-21T13:14:24;100649.12;;;36.94;28.81
76352;BME280;65179;47.786;19.138;2023-08-21T13:16:50;100650.37;;;36.60;30.10
76352;BME280;65179;47.786;19.138;2023-08-21T13:19:15;100650.22;;;37.34;29.50
76352;BME280;65179;47.786;19.138;2023-08-21T13:21:40;100646.69;;;36.96;28.97
76352;BME280;65179;47.786;19.138;2023-08-21T13:24:06;100638.72;;;37.12;29.38
76352;BME280;65179;47.786;19.138;2023-08-21T13:26:32;100632.69;;;36.70;28.94
76352;BME280;65179;47.786;19.138;2023-08-21T13:28:57;100631.69;;;36.52;29.54
76352;BME280;65179;47.786;19.138;2023-08-21T13:31:23;100626.72;;;36.82;30.11
76352;BME280;65179;47.786;19.138;2023-08-21T13:33:49;100625.31;;;37.02;29.06
76352;BME280;65179;47.786;19.138;2023-08-21T13:36:16;100615.78;;;36.77;31.06
76352;BME280;65179;47.786;19.138;2023-08-21T13:38:43;100618.62;;;36.84;30.00
76352;BME280;65179;47.786;19.138;2023-08-21T13:41:08;100613.84;;;36.88;30.23
76352;BME280;65179;47.786;19.138;2023-08-21T13:43:34;100619.78;;;36.76;29.75
76352;BME280;65179;47.786;19.138;2023-08-21T13:46:01;100620.69;;;36.87;30.13
76352;BME280;65179;47.786;19.138;2023-08-21T13:48:29;100614.53;;;36.78;30.32
76352;BME280;65179;47.786;19.138;2023-08-21T13:50:55;100619.31;;;37.11;29.63
76352;BME280;65179;47.786;19.138;2023-08-21T13:53:20;100620.91;;;37.66;29.35
76352;BME280;65179;47.786;19.138;2023-08-21T13:55:46;100617.03;;;37.34;29.44
76352;BME280;65179;47.786;19.138;2023-08-21T13:58:11;100614.84;;;37.68;29.34
76352;BME280;65179;47.786;19.138;2023-08-21T14:00:37;100616.34;;;37.51;29.49
76352;BME280;65179;47.786;19.138;2023-08-21T14:03:03;100614.62;;;37.36;29.22
76352;BME280;65179;47.786;19.138;2023-08-21T14:05:29;100612.66;;;37.40;29.81
76352;BME280;65179;47.786;19.138;2023-08-21T14:07:56;100624.06;;;37.51;29.68
76352;BME280;65179;47.786;19.138;2023-08-21T14:10:22;100604.47;;;38.00;29.19
76352;BME280;65179;47.786;19.138;2023-08-21T14:12:47;100614.00;;;37.67;28.42
76352;BME280;65179;47.786;19.138;2023-08-21T14:15:13;100596.28;;;37.84;28.50
76352;BME280;65179;47.786;19.138;2023-08-21T14:17:38;100590.66;;;37.95;28.67
76352;BME280;65179;47.786;19.138;2023-08-21T14:20:04;100591.50;;;38.03;28.57
76352;BME280;65179;47.786;19.138;2023-08-21T14:22:30;100597.81;;;37.71;29.51
76352;BME280;65179;47.786;19.138;2023-08-21T14:24:57;100586.50;;;37.71;29.03
76352;BME280;65179;47.786;19.138;2023-08-21T14:27:25;100586.22;;;37.25;29.47
76352;BME280;65179;47.786;19.138;2023-08-21T14:29:50;100587.62;;;36.95;30.89
76352;BME280;65179;47.786;19.138;2023-08-21T14:32:16;100583.53;;;36.89;30.13
76352;BME280;65179;47.786;19.138;2023-08-21T14:34:43;100577.75;;;36.78;30.29
76352;BME280;65179;47.786;19.138;2023-08-21T14:37:08;100571.25;;;36.74;30.63
76352;BME280;65179;47.786;19.138;2023-08-21T14:39:36;100576.06;;;37.21;29.52
76352;BME280;65179;47.786;19.138;2023-08-21T14:42:01;100570.25;;;36.96;29.81
76352;BME280;65179;47.786;19.138;2023-08-21T14:44:27;100572.28;;;36.99;29.82
76352;BME280;65179;47.786;19.138;2023-08-21T14:46:53;100576.41;;;37.12;29.69
76352;BME280;65179;47.786;19.138;2023-08-21T14:49:23;100571.97;;;37.11;29.33
76352;BME280;65179;47.786;19.138;2023-08-21T14:51:49;100564.22;;;37.01;29.57
76352;BME280;65179;47.786;19.138;2023-08-21T14:54:14;100565.59;;;37.29;29.29
76352;BME280;65179;47.786;19.138;2023-08-21T14:56:40;100566.94;;;36.91;29.98
76352;BME280;65179;47.786;19.138;2023-08-21T14:59:06;100569.09;;;37.04;29.63
76352;BME280;65179;47.786;19.138;2023-08-21T15:01:36;100563.78;;;36.99;29.71
76352;BME280;65179;47.786;19.138;2023-08-21T15:04:01;100569.13;;;37.11;29.88
76352;BME280;65179;47.786;19.138;2023-08-21T15:06:27;100565.87;;;37.09;29.74
76352;BME280;65179;47.786;19.138;2023-08-21T15:08:52;100565.47;;;37.11;29.54
76352;BME280;65179;47.786;19.138;2023-08-21T15:11:18;100566.59;;;36.99;29.83
76352;BME280;65179;47.786;19.138;2023-08-21T15:13:43;100560.53;;;36.97;30.08
76352;BME280;65179;47.786;19.138;2023-08-21T15:16:09;100553.94;;;36.86;30.29
76352;BME280;65179;47.786;19.138;2023-08-21T15:18:35;100555.84;;;36.72;30.52
76352;BME280;65179;47.786;19.138;2023-08-21T15:21:01;100559.06;;;36.67;30.99
76352;BME280;65179;47.786;19.138;2023-08-21T15:23:27;100553.28;;;36.53;31.09
76352;BME280;65179;47.786;19.138;2023-08-21T15:25:53;100555.06;;;36.31;31.67
76352;BME280;65179;47.786;19.138;2023-08-21T15:28:18;100553.53;;;36.40;31.63
76352;BME280;65179;47.786;19.138;2023-08-21T15:30:44;100552.63;;;36.29;31.77
76352;BME280;65179;47.786;19.138;2023-08-21T15:33:09;100539.56;;;35.85;32.61
76352;BME280;65179;47.786;19.138;2023-08-21T15:35:35;100541.44;;;36.03;32.31
76352;BME280;65179;47.786;19.138;2023-08-21T15:38:00;100543.72;;;35.91;32.85
76352;BME280;65179;47.786;19.138;2023-08-21T15:40:25;100546.31;;;36.06;32.63
76352;BME280;65179;47.786;19.138;2023-08-21T15:42:51;100540.41;;;36.22;32.36
76352;BME280;65179;47.786;19.138;2023-08-21T15:45:16;100540.88;;;36.27;32.46
76352;BME280;65179;47.786;19.138;2023-08-21T15:47:42;100542.06;;;36.23;32.35
76352;BME280;65179;47.786;19.138;2023-08-21T15:50:07;100538.09;;;35.94;32.78
76352;BME280;65179;47.786;19.138;2023-08-21T15:52:33;100535.72;;;35.96;32.84
76352;BME280;65179;47.786;19.138;2023-08-21T15:54:58;100529.91;;;35.86;32.81
76352;BME280;65179;47.786;19.138;2023-08-21T15:57:24;100530.22;;;35.77;32.91
76352;BME280;65179;47.786;19.138;2023-08-21T15:59:50;100525.72;;;35.72;33.38
76352;BME280;65179;47.786;19.138;2023-08-21T16:02:15;100528.87;;;35.67;33.20
76352;BME280;65179;47.786;19.138;2023-08-21T16:04:40;100521.53;;;35.59;33.83
76352;BME280;65179;47.786;19.138;2023-08-21T16:07:06;100519.97;;;35.65;33.61
76352;BME280;65179;47.786;19.138;2023-08-21T16:09:31;100518.00;;;35.40;34.63
76352;BME280;65179;47.786;19.138;2023-08-21T16:11:57;100518.72;;;35.33;35.09
76352;BME280;65179;47.786;19.138;2023-08-21T16:14:22;100522.91;;;35.43;34.96
76352;BME280;65179;47.786;19.138;2023-08-21T16:16:47;100527.72;;;35.42;34.72
76352;BME280;65179;47.786;19.138;2023-08-21T16:19:14;100523.00;;;35.20;35.33
76352;BME280;65179;47.786;19.138;2023-08-21T16:21:39;100517.66;;;35.15;35.94
76352;BME280;65179;47.786;19.138;2023-08-21T16:24:05;100514.94;;;35.22;36.44
76352;BME280;65179;47.786;19.138;2023-08-21T16:26:31;100518.34;;;35.05;37.05
76352;BME280;65179;47.786;19.138;2023-08-21T16:28:56;100521.56;;;35.03;37.09
76352;BME280;65179;47.786;19.138;2023-08-21T16:31:23;100517.16;;;35.06;37.95
76352;BME280;65179;47.786;19.138;2023-08-21T16:33:49;100523.84;;;34.98;38.80
76352;BME280;65179;47.786;19.138;2023-08-21T16:36:14;100522.97;;;34.94;39.22
76352;BME280;65179;47.786;19.138;2023-08-21T16:38:40;100519.69;;;34.88;39.33
76352;BME280;65179;47.786;19.138;2023-08-21T16:41:05;100522.78;;;34.80;39.35
76352;BME280;65179;47.786;19.138;2023-08-21T16:43:31;100527.44;;;34.69;39.82
76352;BME280;65179;47.786;19.138;2023-08-21T16:45:56;100534.41;;;34.52;40.39
76352;BME280;65179;47.786;19.138;2023-08-21T16:48:22;100531.22;;;34.54;39.71
76352;BME280;65179;47.786;19.138;2023-08-21T16:50:48;100521.53;;;34.55;40.29
76352;BME280;65179;47.786;19.138;2023-08-21T16:53:14;100529.88;;;34.48;40.50
76352;BME280;65179;47.786;19.138;2023-08-21T16:55:40;100529.44;;;34.46;40.54
76352;BME280;65179;47.786;19.138;2023-08-21T16:58:06;100531.81;;;34.44;39.82
76352;BME280;65179;47.786;19.138;2023-08-21T17:00:32;100523.66;;;34.39;39.93
76352;BME280;65179;47.786;19.138;2023-08-21T17:02:57;100525.53;;;34.31;40.73
76352;BME280;65179;47.786;19.138;2023-08-21T17:05:25;100524.78;;;34.11;41.80
76352;BME280;65179;47.786;19.138;2023-08-21T17:07:50;100523.47;;;34.05;42.41
76352;BME280;65179;47.786;19.138;2023-08-21T17:10:16;100527.69;;;33.96;43.27
76352;BME280;65179;47.786;19.138;2023-08-21T17:12:42;100524.16;;;33.80;43.95
76352;BME280;65179;47.786;19.138;2023-08-21T17:15:08;100529.72;;;33.76;44.19
76352;BME280;65179;47.786;19.138;2023-08-21T17:17:34;100529.56;;;33.69;44.59
76352;BME280;65179;47.786;19.138;2023-08-21T17:19:59;100526.09;;;33.56;44.97
76352;BME280;65179;47.786;19.138;2023-08-21T17:22:25;100523.91;;;33.50;45.56
76352;BME280;65179;47.786;19.138;2023-08-21T17:24:51;100528.56;;;33.42;46.23
76352;BME280;65179;47.786;19.138;2023-08-21T17:27:17;100530.00;;;33.33;46.72
76352;BME280;65179;47.786;19.138;2023-08-21T17:29:43;100521.66;;;33.21;47.35
76352;BME280;65179;47.786;19.138;2023-08-21T17:32:12;100526.78;;;33.15;48.12
76352;BME280;65179;47.786;19.138;2023-08-21T17:34:38;100529.94;;;33.14;48.07
76352;BME280;65179;47.786;19.138;2023-08-21T17:37:04;100529.88;;;33.10;48.00
76352;BME280;65179;47.786;19.138;2023-08-21T17:39:30;100532.25;;;33.08;47.90
76352;BME280;65179;47.786;19.138;2023-08-21T17:41:56;100524.81;;;33.00;48.20
76352;BME280;65179;47.786;19.138;2023-08-21T17:44:22;100529.06;;;32.94;48.43
76352;BME280;65179;47.786;19.138;2023-08-21T17:46:48;100533.53;;;32.79;48.99
76352;BME280;65179;47.786;19.138;2023-08-21T17:49:15;100544.53;;;32.53;49.95
76352;BME280;65179;47.786;19.138;2023-08-21T17:51:40;100540.00;;;32.49;50.55
76352;BME280;65179;47.786;19.138;2023-08-21T17:54:06;100543.28;;;32.51;50.74
76352;BME280;65179;47.786;19.138;2023-08-21T17:56:31;100546.19;;;32.54;50.49
76352;BME280;65179;47.786;19.138;2023-08-21T17:58:57;100551.63;;;32.47;50.79
76352;BME280;65179;47.786;19.138;2023-08-21T18:01:23;100548.94;;;32.39;51.04
76352;BME280;65179;47.786;19.138;2023-08-21T18:03:48;100545.00;;;32.12;52.06
76352;BME280;65179;47.786;19.138;2023-08-21T18:06:14;100546.25;;;31.99;52.57
76352;BME280;65179;47.786;19.138;2023-08-21T18:08:40;100555.25;;;32.04;52.39
76352;BME280;65179;47.786;19.138;2023-08-21T18:11:06;100554.59;;;31.95;52.77
76352;BME280;65179;47.786;19.138;2023-08-21T18:13:34;100558.00;;;31.89;53.13
76352;BME280;65179;47.786;19.138;2023-08-21T18:16:00;100556.88;;;31.78;53.31
76352;BME280;65179;47.786;19.138;2023-08-21T18:18:25;100561.88;;;31.57;54.25
76352;BME280;65179;47.786;19.138;2023-08-21T18:20:53;100560.50;;;31.78;53.29
76352;BME280;65179;47.786;19.138;2023-08-21T18:23:24;100575.38;;;31.79;53.45
76352;BME280;65179;47.786;19.138;2023-08-21T18:25:51;100569.88;;;31.42;54.76
76352;BME280;65179;47.786;19.138;2023-08-21T18:28:17;100565.91;;;31.43;54.38
76352;BME280;65179;47.786;19.138;2023-08-21T18:30:54;100570.75;;;31.07;55.46
76352;BME280;65179;47.786;19.138;2023-08-21T18:33:21;100580.69;;;30.92;55.59
76352;BME280;65179;47.786;19.138;2023-08-21T18:35:50;100574.81;;;30.85;55.61
76352;BME280;65179;47.786;19.138;2023-08-21T18:38:16;100575.66;;;31.10;54.90
76352;BME280;65179;47.786;19.138;2023-08-21T18:40:43;100574.72;;;30.25;57.72
76352;BME280;65179;47.786;19.138;2023-08-21T18:43:12;100573.41;;;30.10;58.63
76352;BME280;65179;47.786;19.138;2023-08-21T18:45:38;100578.12;;;29.97;58.81
76352;BME280;65179;47.786;19.138;2023-08-21T18:48:04;100579.13;;;29.60;59.71
76352;BME280;65179;47.786;19.138;2023-08-21T18:50:39;100584.62;;;29.89;58.67
76352;BME280;65179;47.786;19.138;2023-08-21T18:53:08;100583.25;;;29.54;60.33
76352;BME280;65179;47.786;19.138;2023-08-21T18:55:42;100594.22;;;29.88;58.44
76352;BME280;65179;47.786;19.138;2023-08-21T18:58:09;100596.59;;;29.57;58.31
76352;BME280;65179;47.786;19.138;2023-08-21T19:00:36;100594.69;;;29.49;58.67
76352;BME280;65179;47.786;19.138;2023-08-21T19:03:02;100603.81;;;29.17;59.58
76352;BME280;65179;47.786;19.138;2023-08-21T19:05:29;100614.03;;;28.75;61.13
76352;BME280;65179;47.786;19.138;2023-08-21T19:07:54;100605.81;;;28.70;61.00
76352;BME280;65179;47.786;19.138;2023-08-21T19:10:20;100614.72;;;28.55;62.53
76352;BME280;65179;47.786;19.138;2023-08-21T19:12:48;100604.81;;;28.75;61.36
76352;BME280;65179;47.786;19.138;2023-08-21T19:15:14;100610.75;;;28.73;61.12
76352;BME280;65179;47.786;19.138;2023-08-21T19:17:44;100614.41;;;28.57;62.19
76352;BME280;65179;47.786;19.138;2023-08-21T19:20:10;100608.25;;;28.25;63.27
76352;BME280;65179;47.786;19.138;2023-08-21T19:22:37;100614.69;;;28.17;64.22
76352;BME280;65179;47.786;19.138;2023-08-21T19:25:04;100606.97;;;28.06;64.38
76352;BME280;65179;47.786;19.138;2023-08-21T19:27:31;100607.13;;;28.09;64.62
76352;BME280;65179;47.786;19.138;2023-08-21T19:29:56;100593.63;;;28.75;62.29
76352;BME280;65179;47.786;19.138;2023-08-21T19:32:23;100598.81;;;29.22;60.42
76352;BME280;65179;47.786;19.138;2023-08-21T19:34:49;100592.59;;;28.88;61.70
76352;BME280;65179;47.786;19.138;2023-08-21T19:37:14;100599.41;;;28.70;62.57
76352;BME280;65179;47.786;19.138;2023-08-21T19:39:41;100607.31;;;28.68;62.47
76352;BME280;65179;47.786;19.138;2023-08-21T19:42:07;100604.44;;;28.85;61.60
76352;BME280;65179;47.786;19.138;2023-08-21T19:44:33;100606.00;;;28.74;61.71
76352;BME280;65179;47.786;19.138;2023-08-21T19:47:01;100605.72;;;28.87;61.40
76352;BME280;65179;47.786;19.138;2023-08-21T19:49:28;100608.88;;;29.23;59.99
76352;BME280;65179;47.786;19.138;2023-08-21T19:51:55;100609.69;;;29.45;59.24
76352;BME280;65179;47.786;19.138;2023-08-21T19:54:21;100603.41;;;29.68;58.53
76352;BME280;65179;47.786;19.138;2023-08-21T19:56:47;100614.75;;;29.51;59.20
76352;BME280;65179;47.786;19.138;2023-08-21T19:59:15;100612.91;;;29.55;59.02
76352;BME280;65179;47.786;19.138;2023-08-21T20:01:41;100614.00;;;28.20;63.64
76352;BME280;65179;47.786;19.138;2023-08-21T20:04:07;100619.81;;;28.07;64.05
76352;BME280;65179;47.786;19.138;2023-08-21T20:06:32;100618.25;;;28.43;62.78
76352;BME280;65179;47.786;19.138;2023-08-21T20:08:58;100610.37;;;28.37;63.09
76352;BME280;65179;47.786;19.138;2023-08-21T20:11:24;100604.06;;;28.48;62.76
76352;BME280;65179;47.786;19.138;2023-08-21T20:13:51;100618.69;;;28.63;62.22
76352;BME280;65179;47.786;19.138;2023-08-21T20:16:17;100619.63;;;27.60;66.53
76352;BME280;65179;47.786;19.138;2023-08-21T20:18:43;100618.16;;;27.71;65.84
76352;BME280;65179;47.786;19.138;2023-08-21T20:21:12;100619.94;;;27.59;65.97
76352;BME280;65179;47.786;19.138;2023-08-21T20:23:42;100619.63;;;28.03;64.01
76352;BME280;65179;47.786;19.138;2023-08-21T20:26:08;100625.69;;;27.79;65.41
76352;BME280;65179;47.786;19.138;2023-08-21T20:28:34;100627.34;;;28.15;63.69
76352;BME280;65179;47.786;19.138;2023-08-21T20:31:01;100629.47;;;27.58;65.98
76352;BME280;65179;47.786;19.138;2023-08-21T20:33:27;100627.34;;;27.63;66.17
76352;BME280;65179;47.786;19.138;2023-08-21T20:35:53;100625.69;;;27.54;66.56
76352;BME280;65179;47.786;19.138;2023-08-21T20:38:19;100625.19;;;27.52;66.50
76352;BME280;65179;47.786;19.138;2023-08-21T20:40:45;100627.56;;;27.11;68.59
76352;BME280;65179;47.786;19.138;2023-08-21T20:43:12;100625.66;;;26.80;70.21
76352;BME280;65179;47.786;19.138;2023-08-21T20:45:38;100622.88;;;27.37;67.85
76352;BME280;65179;47.786;19.138;2023-08-21T20:48:04;100627.34;;;26.98;69.85
76352;BME280;65179;47.786;19.138;2023-08-21T20:50:32;100634.59;;;27.08;68.44
76352;BME280;65179;47.786;19.138;2023-08-21T20:52:57;100636.69;;;26.63;69.99
76352;BME280;65179;47.786;19.138;2023-08-21T20:55:23;100635.50;;;26.86;70.10
76352;BME280;65179;47.786;19.138;2023-08-21T20:57:48;100638.00;;;27.05;68.73
76352;BME280;65179;47.786;19.138;2023-08-21T21:00:15;100635.03;;;27.49;66.79
76352;BME280;65179;47.786;19.138;2023-08-21T21:02:41;100621.59;;;26.64;69.27
76352;BME280;65179;47.786;19.138;2023-08-21T21:05:07;100631.19;;;27.28;67.09
76352;BME280;65179;47.786;19.138;2023-08-21T21:07:36;100635.03;;;26.31;70.13
76352;BME280;65179;47.786;19.138;2023-08-21T21:10:03;100636.09;;;25.78;72.86
76352;BME280;65179;47.786;19.138;2023-08-21T21:12:32;100635.53;;;26.33;70.41
76352;BME280;65179;47.786;19.138;2023-08-21T21:14:57;100633.00;;;26.76;69.57
76352;BME280;65179;47.786;19.138;2023-08-21T21:17:23;100636.34;;;26.95;68.54
76352;BME280;65179;47.786;19.138;2023-08-21T21:19:48;100637.50;;;26.94;69.15
76352;BME280;65179;47.786;19.138;2023-08-21T21:22:14;100630.66;;;27.00;68.72
76352;BME280;65179;47.786;19.138;2023-08-21T21:24:39;100638.38;;;27.21;67.93
76352;BME280;65179;47.786;19.138;2023-08-21T21:27:05;100637.91;;;27.27;67.78
76352;BME280;65179;47.786;19.138;2023-08-21T21:29:30;100635.31;;;27.31;67.58
76352;BME280;65179;47.786;19.138;2023-08-21T21:31:56;100637.44;;;27.34;67.44
76352;BME280;65179;47.786;19.138;2023-08-21T21:34:21;100629.12;;;27.51;67.03
76352;BME280;65179;47.786;19.138;2023-08-21T21:36:47;100628.28;;;27.42;67.15
76352;BME280;65179;47.786;19.138;2023-08-21T21:39:12;100627.22;;;27.12;68.24
76352;BME280;65179;47.786;19.138;2023-08-21T21:41:41;100622.22;;;27.40;66.98
76352;BME280;65179;47.786;19.138;2023-08-21T21:44:07;100629.44;;;27.49;66.46
76352;BME280;65179;47.786;19.138;2023-08-21T21:46:32;100638.16;;;27.48;66.20
76352;BME280;65179;47.786;19.138;2023-08-21T21:48:59;100645.53;;;27.44;65.93
76352;BME280;65179;47.786;19.138;2023-08-21T21:51:25;100633.31;;;27.23;66.47
76352;BME280;65179;47.786;19.138;2023-08-21T21:53:51;100643.44;;;27.01;67.07
76352;BME280;65179;47.786;19.138;2023-08-21T21:56:16;100639.50;;;27.02;67.06
76352;BME280;65179;47.786;19.138;2023-08-21T21:58:42;100644.88;;;26.99;67.05
76352;BME280;65179;47.786;19.138;2023-08-21T22:01:08;100639.28;;;26.90;67.43
76352;BME280;65179;47.786;19.138;2023-08-21T22:03:34;100645.56;;;27.04;66.74
76352;BME280;65179;47.786;19.138;2023-08-21T22:06:00;100640.00;;;27.04;66.65
76352;BME280;65179;47.786;19.138;2023-08-21T22:08:26;100645.38;;;27.01;66.90
76352;BME280;65179;47.786;19.138;2023-08-21T22:10:51;100645.22;;;26.97;66.89
76352;BME280;65179;47.786;19.138;2023-08-21T22:13:17;100639.50;;;26.72;67.84
76352;BME280;65179;47.786;19.138;2023-08-21T22:15:43;100652.59;;;26.63;68.18
76352;BME280;65179;47.786;19.138;2023-08-21T22:18:09;100648.84;;;26.67;68.07
76352;BME280;65179;47.786;19.138;2023-08-21T22:20:34;100641.88;;;26.78;67.80
76352;BME280;65179;47.786;19.138;2023-08-21T22:23:00;100651.75;;;26.93;67.44
76352;BME280;65179;47.786;19.138;2023-08-21T22:25:25;100648.00;;;26.97;67.29
76352;BME280;65179;47.786;19.138;2023-08-21T22:27:51;100640.50;;;27.07;66.92
76352;BME280;65179;47.786;19.138;2023-08-21T22:30:17;100642.56;;;26.92;67.38
76352;BME280;65179;47.786;19.138;2023-08-21T22:32:43;100649.06;;;26.79;67.69
76352;BME280;65179;47.786;19.138;2023-08-21T22:35:08;100648.66;;;26.64;68.22
76352;BME280;65179;47.786;19.138;2023-08-21T22:37:34;100655.22;;;26.37;69.17
76352;BME280;65179;47.786;19.138;2023-08-21T22:39:59;100660.91;;;26.54;68.74
76352;BME280;65179;47.786;19.138;2023-08-21T22:42:25;100648.28;;;26.26;69.91
76352;BME280;65179;47.786;19.138;2023-08-21T22:44:50;100657.06;;;26.19;70.32
76352;BME280;65179;47.786;19.138;2023-08-21T22:47:18;100651.44;;;26.11;70.32
76352;BME280;65179;47.786;19.138;2023-08-21T22:49:43;100650.16;;;26.17;70.25
76352;BME280;65179;47.786;19.138;2023-08-21T22:52:09;100649.28;;;26.30;69.98
76352;BME280;65179;47.786;19.138;2023-08-21T22:54:35;100648.38;;;26.21;70.15
76352;BME280;65179;47.786;19.138;2023-08-21T22:57:00;100635.69;;;26.28;69.86
76352;BME280;65179;47.786;19.138;2023-08-21T22:59:26;100639.03;;;26.17;70.29
76352;BME280;65179;47.786;19.138;2023-08-21T23:01:51;100641.53;;;26.27;70.02
76352;BME280;65179;47.786;19.138;2023-08-21T23:04:17;100642.97;;;26.16;70.60
76352;BME280;65179;47.786;19.138;2023-08-21T23:06:43;100641.19;;;26.20;70.27
76352;BME280;65179;47.786;19.138;2023-08-21T23:09:09;100648.53;;;26.16;70.32
76352;BME280;65179;47.786;19.138;2023-08-21T23:11:36;100645.88;;;26.33;69.52
76352;BME280;65179;47.786;19.138;2023-08-21T23:14:02;100638.91;;;26.22;69.96
76352;BME280;65179;47.786;19.138;2023-08-21T23:16:27;100645.09;;;26.19;70.18
76352;BME280;65179;47.786;19.138;2023-08-21T23:18:53;100640.34;;;25.97;70.90
76352;BME280;65179;47.786;19.138;2023-08-21T23:21:18;100650.50;;;25.80;71.97
76352;BME280;65179;47.786;19.138;2023-08-21T23:23:44;100638.94;;;25.86;71.94
76352;BME280;65179;47.786;19.138;2023-08-21T23:26:09;100644.28;;;25.96;71.88
76352;BME280;65179;47.786;19.138;2023-08-21T23:28:35;100635.12;;;25.82;72.53
76352;BME280;65179;47.786;19.138;2023-08-21T23:31:00;100633.06;;;25.88;72.75
76352;BME280;65179;47.786;19.138;2023-08-21T23:33:26;100633.00;;;25.79;72.97
76352;BME280;65179;47.786;19.138;2023-08-21T23:35:51;100637.75;;;25.79;72.89
76352;BME280;65179;47.786;19.138;2023-08-21T23:38:17;100636.91;;;25.78;72.78
76352;BME280;65179;47.786;19.138;2023-08-21T23:40:42;100635.03;;;25.87;72.66
76352;BME280;65179;47.786;19.138;2023-08-21T23:43:08;100627.63;;;25.83;72.52
76352;BME280;65179;47.786;19.138;2023-08-21T23:45:34;100622.78;;;26.10;71.26
76352;BME280;65179;47.786;19.138;2023-08-21T23:48:01;100623.19;;;26.04;71.22
76352;BME280;65179;47.786;19.138;2023-08-21T23:50:27;100619.91;;;26.02;70.95
76352;BME280;65179;47.786;19.138;2023-08-21T23:52:55;100623.31;;;25.77;71.72
76352;BME280;65179;47.786;19.138;2023-08-21T23:55:20;100623.41;;;25.85;71.36
76352;BME280;65179;47.786;19.138;2023-08-21T23:57:46;100621.91;;;25.66;71.94
